DAL341 KDTW-CYYZ
Flight info
| Callsign | DAL341 |
|---|---|
| Flight time | 0h 42m |
| Altitude | 29000 |
| Route | ZETTR4 TANKO DCT APDAX NUBER6 |
| Aircraft | A339/H-SADE1E2E3GHIJ3J5M1P2RWXY/LB2D1 |
Departure
| Time | 2026-05-05 00:34 |
|---|---|
| Airport | Detroit Metropolitan Wayne County Airport (KDTW) |
Arrival
| Time | 2026-05-05 01:17 |
|---|---|
| Airport | Toronto Pearson International Airport (CYYZ) |
| Time | Latitude | Longitude | Altitude | Speed | Heading |
|---|---|---|---|---|---|
| 2026-05-05 00:09 | 42.21487 | -83.35372 | 655 ft | 0 kts | 180° |
| 2026-05-05 00:25 | 42.21501 | -83.35372 | 659 ft | 2 kts | 179° |
| 2026-05-05 00:26 | 42.21520 | -83.35358 | 661 ft | 3 kts | 115° |
| 2026-05-05 00:26 | 42.21520 | -83.35375 | 660 ft | 2 kts | 100° |
| 2026-05-05 00:26 | 42.21532 | -83.35402 | 661 ft | 7 kts | 133° |
| 2026-05-05 00:26 | 42.21548 | -83.35441 | 661 ft | 0 kts | 91° |
| 2026-05-05 00:29 | 42.21548 | -83.35432 | 660 ft | 2 kts | 91° |
| 2026-05-05 00:29 | 42.21548 | -83.35394 | 660 ft | 8 kts | 89° |
| 2026-05-05 00:29 | 42.21550 | -83.35288 | 659 ft | 14 kts | 89° |
| 2026-05-05 00:29 | 42.21552 | -83.35157 | 655 ft | 14 kts | 88° |
| 2026-05-05 00:30 | 42.21597 | -83.35033 | 659 ft | 17 kts | 45° |
| 2026-05-05 00:30 | 42.21690 | -83.34913 | 656 ft | 19 kts | 43° |
| 2026-05-05 00:30 | 42.21783 | -83.34793 | 656 ft | 19 kts | 44° |
| 2026-05-05 00:30 | 42.21835 | -83.34664 | 659 ft | 15 kts | 89° |
| 2026-05-05 00:31 | 42.21842 | -83.34536 | 659 ft | 12 kts | 72° |
| 2026-05-05 00:31 | 42.21899 | -83.34472 | 660 ft | 10 kts | 30° |
| 2026-05-05 00:31 | 42.21951 | -83.34432 | 659 ft | 9 kts | 30° |
| 2026-05-05 00:31 | 42.22006 | -83.34392 | 660 ft | 10 kts | 28° |
| 2026-05-05 00:32 | 42.22091 | -83.34329 | 661 ft | 19 kts | 28° |
| 2026-05-05 00:32 | 42.22237 | -83.34222 | 659 ft | 27 kts | 28° |
| 2026-05-05 00:32 | 42.22422 | -83.34083 | 661 ft | 32 kts | 29° |
| 2026-05-05 00:32 | 42.22608 | -83.33943 | 661 ft | 30 kts | 28° |
| 2026-05-05 00:33 | 42.22749 | -83.33841 | 658 ft | 21 kts | 29° |
| 2026-05-05 00:33 | 42.22851 | -83.33738 | 658 ft | 15 kts | 66° |
| 2026-05-05 00:33 | 42.22817 | -83.33635 | 658 ft | 9 kts | 139° |
| 2026-05-05 00:33 | 42.22771 | -83.33660 | 658 ft | 27 kts | 211° |
| 2026-05-05 00:34 | 42.22346 | -83.33972 | 661 ft | 111 kts | 209° |
| 2026-05-05 00:34 | 42.21489 | -83.34603 | 869 ft | 159 kts | 208° |
| 2026-05-05 00:34 | 42.20463 | -83.35377 | 1468 ft | 175 kts | 211° |
| 2026-05-05 00:34 | 42.19403 | -83.36051 | 2582 ft | 166 kts | 204° |
| 2026-05-05 00:35 | 42.18171 | -83.36161 | 3225 ft | 195 kts | 180° |
| 2026-05-05 00:35 | 42.16758 | -83.35731 | 3685 ft | 220 kts | 174° |
| 2026-05-05 00:35 | 42.15210 | -83.35183 | 4190 ft | 238 kts | 173° |
| 2026-05-05 00:35 | 42.13591 | -83.34624 | 4944 ft | 241 kts | 174° |
| 2026-05-05 00:36 | 42.11945 | -83.34066 | 5655 ft | 248 kts | 171° |
| 2026-05-05 00:36 | 42.10398 | -83.32851 | 6323 ft | 269 kts | 143° |
| 2026-05-05 00:36 | 42.09331 | -83.30752 | 7022 ft | 284 kts | 116° |
| 2026-05-05 00:36 | 42.08980 | -83.28093 | 7695 ft | 296 kts | 90° |
| 2026-05-05 00:37 | 42.09248 | -83.25253 | 8044 ft | 315 kts | 78° |
| 2026-05-05 00:37 | 42.09869 | -83.22401 | 8753 ft | 317 kts | 67° |
| 2026-05-05 00:37 | 42.10618 | -83.19575 | 9499 ft | 321 kts | 70° |
| 2026-05-05 00:37 | 42.11259 | -83.16707 | 10123 ft | 325 kts | 71° |
| 2026-05-05 00:38 | 42.12328 | -83.13961 | 10404 ft | 340 kts | 48° |
| 2026-05-05 00:38 | 42.14112 | -83.11847 | 10667 ft | 349 kts | 27° |
| 2026-05-05 00:38 | 42.16263 | -83.10325 | 11258 ft | 350 kts | 20° |
| 2026-05-05 00:38 | 42.18490 | -83.08927 | 11930 ft | 353 kts | 19° |
| 2026-05-05 00:39 | 42.20713 | -83.07461 | 12562 ft | 357 kts | 21° |
| 2026-05-05 00:39 | 42.22904 | -83.05910 | 13224 ft | 361 kts | 22° |
| 2026-05-05 00:39 | 42.25123 | -83.04264 | 13783 ft | 365 kts | 24° |
| 2026-05-05 00:39 | 42.27382 | -83.02665 | 14383 ft | 365 kts | 18° |
| 2026-05-05 00:40 | 42.29781 | -83.01539 | 14940 ft | 363 kts | 8° |
| 2026-05-05 00:40 | 42.32253 | -83.00834 | 15435 ft | 367 kts | 5° |
| 2026-05-05 00:40 | 42.34813 | -83.00123 | 15705 ft | 379 kts | 6° |
| 2026-05-05 00:40 | 42.37378 | -82.99387 | 16239 ft | 382 kts | 6° |
| 2026-05-05 00:41 | 42.39984 | -82.98628 | 16791 ft | 386 kts | 6° |
| 2026-05-05 00:41 | 42.42624 | -82.97858 | 17317 ft | 389 kts | 6° |
| 2026-05-05 00:41 | 42.45295 | -82.97079 | 17850 ft | 394 kts | 6° |
| 2026-05-05 00:41 | 42.47981 | -82.96297 | 18344 ft | 396 kts | 6° |
| 2026-05-05 00:42 | 42.50693 | -82.95508 | 18874 ft | 398 kts | 6° |
| 2026-05-05 00:42 | 42.53414 | -82.94716 | 19331 ft | 401 kts | 6° |
| 2026-05-05 00:42 | 42.56150 | -82.93920 | 19849 ft | 404 kts | 6° |
| 2026-05-05 00:42 | 42.58873 | -82.93126 | 20339 ft | 407 kts | 6° |
| 2026-05-05 00:43 | 42.61652 | -82.92315 | 20567 ft | 408 kts | 6° |
| 2026-05-05 00:43 | 42.64478 | -82.91494 | 20602 ft | 421 kts | 6° |
| 2026-05-05 00:43 | 42.67409 | -82.90647 | 20596 ft | 438 kts | 6° |
| 2026-05-05 00:43 | 42.70416 | -82.89777 | 20598 ft | 452 kts | 6° |
| 2026-05-05 00:44 | 42.73506 | -82.88871 | 20595 ft | 454 kts | 6° |
| 2026-05-05 00:44 | 42.76601 | -82.87801 | 20592 ft | 459 kts | 13° |
| 2026-05-05 00:44 | 42.79511 | -82.86023 | 20589 ft | 468 kts | 24° |
| 2026-05-05 00:44 | 42.82201 | -82.83465 | 20587 ft | 475 kts | 36° |
| 2026-05-05 00:45 | 42.84633 | -82.80443 | 20605 ft | 477 kts | 38° |
| 2026-05-05 00:45 | 42.87089 | -82.77388 | 20606 ft | 476 kts | 38° |
| 2026-05-05 00:45 | 42.89534 | -82.74347 | 20609 ft | 478 kts | 40° |
| 2026-05-05 00:45 | 42.91738 | -82.70937 | 20611 ft | 482 kts | 50° |
| 2026-05-05 00:46 | 42.93532 | -82.67041 | 20615 ft | 486 kts | 60° |
| 2026-05-05 00:46 | 42.94911 | -82.62813 | 20616 ft | 487 kts | 66° |
| 2026-05-05 00:46 | 42.96233 | -82.58548 | 20614 ft | 490 kts | 65° |
| 2026-05-05 00:46 | 42.97570 | -82.54286 | 20616 ft | 487 kts | 65° |
| 2026-05-05 00:47 | 42.98907 | -82.50036 | 20617 ft | 487 kts | 65° |
| 2026-05-05 00:47 | 43.00232 | -82.45827 | 20615 ft | 491 kts | 65° |
| 2026-05-05 00:47 | 43.01579 | -82.41537 | 20586 ft | 487 kts | 65° |
| 2026-05-05 00:47 | 43.02851 | -82.37246 | 20590 ft | 488 kts | 70° |
| 2026-05-05 00:48 | 43.03883 | -82.32833 | 20586 ft | 488 kts | 71° |
| 2026-05-05 00:48 | 43.04919 | -82.28402 | 20586 ft | 488 kts | 71° |
| 2026-05-05 00:48 | 43.05958 | -82.23980 | 20589 ft | 488 kts | 71° |
| 2026-05-05 00:48 | 43.06990 | -82.19588 | 20587 ft | 488 kts | 71° |
| 2026-05-05 00:49 | 43.08028 | -82.15161 | 20593 ft | 488 kts | 71° |
| 2026-05-05 00:49 | 43.09062 | -82.10742 | 20598 ft | 488 kts | 71° |
| 2026-05-05 00:49 | 43.10095 | -82.06318 | 20602 ft | 488 kts | 71° |
| 2026-05-05 00:49 | 43.11127 | -82.01886 | 20604 ft | 488 kts | 71° |
| 2026-05-05 00:50 | 43.12160 | -81.97445 | 20608 ft | 488 kts | 71° |
| 2026-05-05 00:50 | 43.13189 | -81.93013 | 20618 ft | 487 kts | 71° |
| 2026-05-05 00:50 | 43.14198 | -81.88655 | 20312 ft | 482 kts | 71° |
| 2026-05-05 00:50 | 43.15191 | -81.84357 | 20012 ft | 463 kts | 71° |
| 2026-05-05 00:51 | 43.16139 | -81.80242 | 19553 ft | 445 kts | 71° |
| 2026-05-05 00:51 | 43.17067 | -81.76219 | 18630 ft | 438 kts | 72° |
| 2026-05-05 00:51 | 43.17980 | -81.72262 | 17666 ft | 432 kts | 72° |
| 2026-05-05 00:51 | 43.18876 | -81.68355 | 16665 ft | 425 kts | 72° |
| 2026-05-05 00:52 | 43.19753 | -81.64522 | 15683 ft | 419 kts | 72° |
| 2026-05-05 00:52 | 43.20606 | -81.60779 | 14726 ft | 413 kts | 72° |
| 2026-05-05 00:52 | 43.21456 | -81.57048 | 13857 ft | 406 kts | 71° |
| 2026-05-05 00:52 | 43.22277 | -81.53436 | 13544 ft | 384 kts | 71° |
| 2026-05-05 00:53 | 43.23694 | -81.47197 | 13034 ft | 344 kts | 71° |
| 2026-05-05 00:53 | 43.24156 | -81.45168 | 12998 ft | 335 kts | 71° |
| 2026-05-05 00:53 | 43.26332 | -81.35575 | 12996 ft | 388 kts | 71° |
| 2026-05-05 00:53 | 43.27435 | -81.30690 | 13003 ft | 405 kts | 72° |
| 2026-05-05 00:54 | 43.27999 | -81.28188 | 13001 ft | 412 kts | 72° |
| 2026-05-05 00:54 | 43.28854 | -81.24385 | 13002 ft | 421 kts | 72° |
| 2026-05-05 00:54 | 43.29674 | -81.20507 | 13006 ft | 429 kts | 73° |
| 2026-05-05 00:54 | 43.30456 | -81.16526 | 13002 ft | 434 kts | 74° |
| 2026-05-05 00:55 | 43.31592 | -81.10650 | 13006 ft | 433 kts | 74° |
| 2026-05-05 00:55 | 43.32486 | -81.06065 | 13009 ft | 434 kts | 74° |
| 2026-05-05 00:55 | 43.33275 | -81.02046 | 13013 ft | 433 kts | 74° |
| 2026-05-05 00:55 | 43.34342 | -80.96633 | 13012 ft | 433 kts | 74° |
| 2026-05-05 00:56 | 43.35211 | -80.92215 | 13015 ft | 432 kts | 74° |
| 2026-05-05 00:56 | 43.35993 | -80.88232 | 13015 ft | 432 kts | 74° |
| 2026-05-05 00:56 | 43.36778 | -80.84226 | 13016 ft | 432 kts | 74° |
| 2026-05-05 00:56 | 43.37562 | -80.80221 | 13016 ft | 432 kts | 74° |
| 2026-05-05 00:57 | 43.38333 | -80.76274 | 13014 ft | 432 kts | 74° |
| 2026-05-05 00:57 | 43.39112 | -80.72281 | 13012 ft | 432 kts | 74° |
| 2026-05-05 00:57 | 43.39890 | -80.68285 | 13010 ft | 432 kts | 74° |
| 2026-05-05 00:57 | 43.40664 | -80.64292 | 13010 ft | 432 kts | 74° |
| 2026-05-05 00:58 | 43.41556 | -80.59692 | 13013 ft | 432 kts | 74° |
| 2026-05-05 00:58 | 43.42872 | -80.52886 | 13001 ft | 432 kts | 74° |
| 2026-05-05 00:58 | 43.43643 | -80.48886 | 12990 ft | 429 kts | 74° |
| 2026-05-05 00:58 | 43.44133 | -80.46343 | 12929 ft | 423 kts | 74° |
| 2026-05-05 00:59 | 43.44863 | -80.42544 | 12704 ft | 401 kts | 74° |
| 2026-05-05 00:59 | 43.45556 | -80.38934 | 12447 ft | 378 kts | 74° |
| 2026-05-05 00:59 | 43.46354 | -80.35599 | 12183 ft | 353 kts | 67° |
| 2026-05-05 00:59 | 43.47230 | -80.32517 | 11755 ft | 337 kts | 67° |
| 2026-05-05 01:00 | 43.48253 | -80.28908 | 11153 ft | 330 kts | 67° |
| 2026-05-05 01:00 | 43.49095 | -80.25911 | 11039 ft | 336 kts | 68° |
| 2026-05-05 01:00 | 43.49929 | -80.22913 | 11007 ft | 334 kts | 68° |
| 2026-05-05 01:00 | 43.50752 | -80.19956 | 11012 ft | 335 kts | 68° |
| 2026-05-05 01:01 | 43.51583 | -80.16952 | 11007 ft | 334 kts | 68° |
| 2026-05-05 01:01 | 43.52383 | -80.13958 | 10761 ft | 331 kts | 69° |
| 2026-05-05 01:01 | 43.53093 | -80.10942 | 10249 ft | 330 kts | 79° |
| 2026-05-05 01:01 | 43.53253 | -80.07808 | 9709 ft | 325 kts | 88° |
| 2026-05-05 01:02 | 43.53784 | -80.04818 | 9128 ft | 325 kts | 68° |
| 2026-05-05 01:02 | 43.54720 | -80.02000 | 8527 ft | 322 kts | 63° |
| 2026-05-05 01:02 | 43.55716 | -79.99253 | 8145 ft | 316 kts | 63° |
| 2026-05-05 01:02 | 43.56656 | -79.96534 | 8014 ft | 318 kts | 65° |
| 2026-05-05 01:03 | 43.57559 | -79.93730 | 8007 ft | 319 kts | 66° |
| 2026-05-05 01:03 | 43.58410 | -79.90911 | 8014 ft | 318 kts | 68° |
| 2026-05-05 01:03 | 43.59190 | -79.88043 | 8001 ft | 319 kts | 75° |
| 2026-05-05 01:03 | 43.59543 | -79.85041 | 8012 ft | 315 kts | 90° |
| 2026-05-05 01:04 | 43.59545 | -79.82095 | 8002 ft | 296 kts | 93° |
| 2026-05-05 01:04 | 43.59549 | -79.76765 | 8009 ft | 268 kts | 93° |
| 2026-05-05 01:04 | 43.59563 | -79.74186 | 8001 ft | 273 kts | 93° |
| 2026-05-05 01:05 | 43.59575 | -79.71584 | 7995 ft | 269 kts | 93° |
| 2026-05-05 01:05 | 43.59593 | -79.69019 | 7989 ft | 269 kts | 92° |
| 2026-05-05 01:05 | 43.59615 | -79.66422 | 8003 ft | 269 kts | 92° |
| 2026-05-05 01:05 | 43.59631 | -79.63840 | 8007 ft | 269 kts | 92° |
| 2026-05-05 01:06 | 43.59649 | -79.61283 | 7917 ft | 267 kts | 93° |
| 2026-05-05 01:06 | 43.59659 | -79.58722 | 7641 ft | 267 kts | 93° |
| 2026-05-05 01:06 | 43.59664 | -79.56171 | 7297 ft | 264 kts | 92° |
| 2026-05-05 01:06 | 43.60054 | -79.53703 | 6888 ft | 269 kts | 65° |
| 2026-05-05 01:07 | 43.61123 | -79.51616 | 6587 ft | 264 kts | 45° |
| 2026-05-05 01:07 | 43.62432 | -79.49847 | 6285 ft | 262 kts | 39° |
| 2026-05-05 01:07 | 43.63779 | -79.48155 | 5962 ft | 262 kts | 40° |
| 2026-05-05 01:07 | 43.65097 | -79.46417 | 5603 ft | 262 kts | 42° |
| 2026-05-05 01:08 | 43.66387 | -79.44635 | 5275 ft | 262 kts | 43° |
| 2026-05-05 01:08 | 43.67651 | -79.42830 | 4987 ft | 261 kts | 45° |
| 2026-05-05 01:08 | 43.68882 | -79.41024 | 4699 ft | 261 kts | 46° |
| 2026-05-05 01:08 | 43.70121 | -79.39174 | 4355 ft | 262 kts | 46° |
| 2026-05-05 01:09 | 43.71370 | -79.37358 | 4098 ft | 259 kts | 46° |
| 2026-05-05 01:09 | 43.72614 | -79.35541 | 4017 ft | 264 kts | 46° |
| 2026-05-05 01:09 | 43.73896 | -79.33661 | 3994 ft | 267 kts | 46° |
| 2026-05-05 01:09 | 43.75145 | -79.31817 | 3998 ft | 263 kts | 46° |
| 2026-05-05 01:10 | 43.76530 | -79.30234 | 3932 ft | 258 kts | 23° |
| 2026-05-05 01:10 | 43.78205 | -79.29597 | 3671 ft | 245 kts | 354° |
| 2026-05-05 01:10 | 43.79807 | -79.30050 | 3270 ft | 229 kts | 324° |
| 2026-05-05 01:10 | 43.80946 | -79.31396 | 3041 ft | 201 kts | 290° |
| 2026-05-05 01:11 | 43.81271 | -79.33146 | 3024 ft | 190 kts | 261° |
| 2026-05-05 01:11 | 43.81187 | -79.34967 | 3009 ft | 189 kts | 259° |
| 2026-05-05 01:11 | 43.81093 | -79.36781 | 3008 ft | 189 kts | 259° |
| 2026-05-05 01:11 | 43.81005 | -79.38610 | 3015 ft | 192 kts | 259° |
| 2026-05-05 01:12 | 43.80722 | -79.40390 | 3013 ft | 188 kts | 243° |
| 2026-05-05 01:12 | 43.80057 | -79.41891 | 3008 ft | 184 kts | 230° |
| 2026-05-05 01:12 | 43.79208 | -79.43225 | 3008 ft | 184 kts | 226° |
| 2026-05-05 01:12 | 43.78294 | -79.44563 | 3016 ft | 193 kts | 226° |
| 2026-05-05 01:13 | 43.77429 | -79.45832 | 2994 ft | 166 kts | 226° |
| 2026-05-05 01:13 | 43.76685 | -79.46922 | 3006 ft | 153 kts | 226° |
| 2026-05-05 01:13 | 43.75934 | -79.48013 | 2828 ft | 156 kts | 227° |
| 2026-05-05 01:13 | 43.75215 | -79.49069 | 2634 ft | 148 kts | 225° |
| 2026-05-05 01:14 | 43.74502 | -79.50108 | 2445 ft | 151 kts | 225° |
| 2026-05-05 01:14 | 43.73790 | -79.51144 | 2243 ft | 144 kts | 224° |
| 2026-05-05 01:14 | 43.73136 | -79.52101 | 2051 ft | 127 kts | 226° |
| 2026-05-05 01:14 | 43.72560 | -79.52945 | 1895 ft | 118 kts | 225° |
| 2026-05-05 01:15 | 43.71979 | -79.53783 | 1731 ft | 123 kts | 225° |
| 2026-05-05 01:15 | 43.71397 | -79.54639 | 1579 ft | 116 kts | 226° |
| 2026-05-05 01:15 | 43.70797 | -79.55507 | 1407 ft | 133 kts | 226° |
| 2026-05-05 01:15 | 43.70202 | -79.56379 | 1243 ft | 136 kts | 224° |
| 2026-05-05 01:16 | 43.69535 | -79.57353 | 1056 ft | 139 kts | 224° |
| 2026-05-05 01:16 | 43.68887 | -79.58295 | 847 ft | 127 kts | 224° |
| 2026-05-05 01:16 | 43.68258 | -79.59208 | 719 ft | 138 kts | 223° |
| 2026-05-05 01:16 | 43.67581 | -79.60187 | 576 ft | 137 kts | 225° |
| 2026-05-05 01:17 | 43.67188 | -79.60774 | 561 ft | 42 kts | 226° |
| 2026-05-05 01:17 | 43.67080 | -79.60961 | 563 ft | 13 kts | 252° |
| 2026-05-05 01:17 | 43.67116 | -79.61060 | 562 ft | 14 kts | 328° |
| 2026-05-05 01:17 | 43.67153 | -79.61109 | 562 ft | 0 kts | 315° |
| 2026-05-05 01:18 | 43.67166 | -79.61127 | 564 ft | 7 kts | 315° |
| 2026-05-05 01:18 | 43.67221 | -79.61195 | 558 ft | 14 kts | 319° |
| 2026-05-05 01:18 | 43.67314 | -79.61313 | 565 ft | 22 kts | 316° |
| 2026-05-05 01:18 | 43.67438 | -79.61481 | 564 ft | 27 kts | 315° |
| 2026-05-05 01:19 | 43.67587 | -79.61683 | 572 ft | 32 kts | 318° |
| 2026-05-05 01:19 | 43.67747 | -79.61884 | 568 ft | 30 kts | 317° |
| 2026-05-05 01:19 | 43.67888 | -79.62047 | 565 ft | 22 kts | 330° |
| 2026-05-05 01:19 | 43.68021 | -79.62164 | 567 ft | 22 kts | 319° |
| 2026-05-05 01:20 | 43.68134 | -79.62316 | 568 ft | 23 kts | 316° |
| 2026-05-05 01:20 | 43.68247 | -79.62425 | 577 ft | 16 kts | 356° |
| 2026-05-05 01:20 | 43.68344 | -79.62366 | 572 ft | 16 kts | 16° |
| 2026-05-05 01:20 | 43.68437 | -79.62381 | 576 ft | 9 kts | 351° |
| 2026-05-05 01:21 | 43.68444 | -79.62382 | 573 ft | 0 kts | 351° |